sensor_id;sensor_type;location;lat;lon;timestamp;temperature;humidity
40960;DHT22;27842;52.272;8.052;2023-04-02T00:11:31;6.50;99.90
40960;DHT22;27842;52.272;8.052;2023-04-02T00:14:00;6.50;99.90
40960;DHT22;27842;52.272;8.052;2023-04-02T00:16:26;6.50;99.90
40960;DHT22;27842;52.272;8.052;2023-04-02T00:19:00;6.40;99.90
40960;DHT22;27842;52.272;8.052;2023-04-02T00:21:31;6.50;99.90
40960;DHT22;27842;52.272;8.052;2023-04-02T00:24:09;6.50;99.90
40960;DHT22;27842;52.272;8.052;2023-04-02T00:26:37;6.30;99.90
40960;DHT22;27842;52.272;8.052;2023-04-02T00:29:06;6.30;99.90
40960;DHT22;27842;52.272;8.052;2023-04-02T00:31:35;6.20;99.90
40960;DHT22;27842;52.272;8.052;2023-04-02T00:34:03;6.20;99.90
40960;DHT22;27842;52.272;8.052;2023-04-02T00:36:30;6.20;99.90
40960;DHT22;27842;52.272;8.052;2023-04-02T00:38:58;6.20;99.90
40960;DHT22;27842;52.272;8.052;2023-04-02T00:41:27;6.30;99.90
40960;DHT22;27842;52.272;8.052;2023-04-02T00:43:56;6.10;99.90
40960;DHT22;27842;52.272;8.052;2023-04-02T00:46:31;6.10;99.90
40960;DHT22;27842;52.272;8.052;2023-04-02T00:49:04;6.10;99.90
40960;DHT22;27842;52.272;8.052;2023-04-02T00:51:51;6.00;99.90
40960;DHT22;27842;52.272;8.052;2023-04-02T00:54:20;6.00;99.90
40960;DHT22;27842;52.272;8.052;2023-04-02T00:56:49;6.00;99.90
40960;DHT22;27842;52.272;8.052;2023-04-02T00:59:24;6.00;99.90
40960;DHT22;27842;52.272;8.052;2023-04-02T01:01:53;6.00;99.90
40960;DHT22;27842;52.272;8.052;2023-04-02T01:04:32;6.00;99.90
40960;DHT22;27842;52.272;8.052;2023-04-02T01:07:01;6.00;99.90
40960;DHT22;27842;52.272;8.052;2023-04-02T01:14:49;5.90;99.90
40960;DHT22;27842;52.272;8.052;2023-04-02T01:21:06;5.80;99.90
40960;DHT22;27842;52.272;8.052;2023-04-02T01:23:43;5.80;99.90
40960;DHT22;27842;52.272;8.052;2023-04-02T01:26:25;5.80;99.90
40960;DHT22;27842;52.272;8.052;2023-04-02T01:28:56;5.80;99.90
40960;DHT22;27842;52.272;8.052;2023-04-02T01:31:25;5.80;99.90
40960;DHT22;27842;52.272;8.052;2023-04-02T01:33:52;5.80;99.90
40960;DHT22;27842;52.272;8.052;2023-04-02T01:39:11;5.60;99.90
40960;DHT22;27842;52.272;8.052;2023-04-02T01:44:45;5.60;99.90
40960;DHT22;27842;52.272;8.052;2023-04-02T01:47:15;5.60;99.90
40960;DHT22;27842;52.272;8.052;2023-04-02T01:52:40;5.50;99.90
40960;DHT22;27842;52.272;8.052;2023-04-02T01:55:08;5.50;99.90
40960;DHT22;27842;52.272;8.052;2023-04-02T01:57:35;5.30;99.90
40960;DHT22;27842;52.272;8.052;2023-04-02T02:00:02;5.30;99.90
40960;DHT22;27842;52.272;8.052;2023-04-02T02:02:33;5.40;99.90
40960;DHT22;27842;52.272;8.052;2023-04-02T02:05:00;5.30;99.90
40960;DHT22;27842;52.272;8.052;2023-04-02T02:07:25;5.30;99.90
40960;DHT22;27842;52.272;8.052;2023-04-02T02:09:52;5.30;99.90
40960;DHT22;27842;52.272;8.052;2023-04-02T02:12:18;5.20;99.90
40960;DHT22;27842;52.272;8.052;2023-04-02T02:14:50;5.20;99.90
40960;DHT22;27842;52.272;8.052;2023-04-02T02:17:19;5.20;99.90
40960;DHT22;27842;52.272;8.052;2023-04-02T02:19:54;5.20;99.90
40960;DHT22;27842;52.272;8.052;2023-04-02T02:22:32;5.10;99.90
40960;DHT22;27842;52.272;8.052;2023-04-02T02:25:03;5.20;99.90
40960;DHT22;27842;52.272;8.052;2023-04-02T02:27:44;5.20;99.90
40960;DHT22;27842;52.272;8.052;2023-04-02T02:33:04;5.10;99.90
40960;DHT22;27842;52.272;8.052;2023-04-02T02:46:57;5.10;99.90
40960;DHT22;27842;52.272;8.052;2023-04-02T02:49:38;5.00;99.90
40960;DHT22;27842;52.272;8.052;2023-04-02T02:54:38;5.00;99.90
40960;DHT22;27842;52.272;8.052;2023-04-02T02:57:07;5.00;99.90
40960;DHT22;27842;52.272;8.052;2023-04-02T02:59:35;5.00;99.90
40960;DHT22;27842;52.272;8.052;2023-04-02T03:02:02;4.90;99.90
40960;DHT22;27842;52.272;8.052;2023-04-02T03:04:29;4.90;99.90
40960;DHT22;27842;52.272;8.052;2023-04-02T03:06:56;4.90;99.90
40960;DHT22;27842;52.272;8.052;2023-04-02T03:15:46;4.90;99.90
40960;DHT22;27842;52.272;8.052;2023-04-02T03:18:22;4.80;99.90
40960;DHT22;27842;52.272;8.052;2023-04-02T03:20:59;4.80;99.90
40960;DHT22;27842;52.272;8.052;2023-04-02T03:23:31;4.80;99.90
40960;DHT22;27842;52.272;8.052;2023-04-02T03:26:17;4.70;99.90
40960;DHT22;27842;52.272;8.052;2023-04-02T03:28:51;4.70;99.90
40960;DHT22;27842;52.272;8.052;2023-04-02T03:31:49;4.70;99.90
40960;DHT22;27842;52.272;8.052;2023-04-02T03:34:33;4.80;99.90
40960;DHT22;27842;52.272;8.052;2023-04-02T03:40:13;4.70;99.90
40960;DHT22;27842;52.272;8.052;2023-04-02T03:43:01;4.60;99.90
40960;DHT22;27842;52.272;8.052;2023-04-02T03:45:32;4.70;99.90
40960;DHT22;27842;52.272;8.052;2023-04-02T03:50:59;4.50;99.90
40960;DHT22;27842;52.272;8.052;2023-04-02T03:53:27;4.60;99.90
40960;DHT22;27842;52.272;8.052;2023-04-02T03:55:54;4.60;99.90
40960;DHT22;27842;52.272;8.052;2023-04-02T03:58:39;4.50;99.90
40960;DHT22;27842;52.272;8.052;2023-04-02T04:01:28;4.60;99.90
40960;DHT22;27842;52.272;8.052;2023-04-02T04:04:03;4.50;99.90
40960;DHT22;27842;52.272;8.052;2023-04-02T04:06:34;4.50;99.90
40960;DHT22;27842;52.272;8.052;2023-04-02T04:11:32;4.60;99.90
40960;DHT22;27842;52.272;8.052;2023-04-02T04:14:08;4.50;99.90
40960;DHT22;27842;52.272;8.052;2023-04-02T04:19:53;4.40;99.90
40960;DHT22;27842;52.272;8.052;2023-04-02T04:22:24;4.40;99.90
40960;DHT22;27842;52.272;8.052;2023-04-02T04:25:02;4.40;99.90
40960;DHT22;27842;52.272;8.052;2023-04-02T04:27:55;4.40;99.90
40960;DHT22;27842;52.272;8.052;2023-04-02T04:30:42;4.30;99.90
40960;DHT22;27842;52.272;8.052;2023-04-02T04:33:24;4.30;99.90
40960;DHT22;27842;52.272;8.052;2023-04-02T04:35:56;4.30;99.90
40960;DHT22;27842;52.272;8.052;2023-04-02T04:38:36;4.30;99.90
40960;DHT22;27842;52.272;8.052;2023-04-02T04:41:12;4.30;99.90
40960;DHT22;27842;52.272;8.052;2023-04-02T04:43:51;4.20;99.90
40960;DHT22;27842;52.272;8.052;2023-04-02T04:46:26;4.20;99.90
40960;DHT22;27842;52.272;8.052;2023-04-02T04:51:41;4.30;99.90
40960;DHT22;27842;52.272;8.052;2023-04-02T04:54:12;4.30;99.90
40960;DHT22;27842;52.272;8.052;2023-04-02T04:56:38;4.30;99.90
40960;DHT22;27842;52.272;8.052;2023-04-02T05:01:54;4.20;99.90
40960;DHT22;27842;52.272;8.052;2023-04-02T05:04:28;4.10;99.90
40960;DHT22;27842;52.272;8.052;2023-04-02T05:07:02;4.10;99.90
40960;DHT22;27842;52.272;8.052;2023-04-02T05:09:50;4.10;99.90
40960;DHT22;27842;52.272;8.052;2023-04-02T05:12:36;4.10;99.90
40960;DHT22;27842;52.272;8.052;2023-04-02T05:20:36;4.20;99.90
40960;DHT22;27842;52.272;8.052;2023-04-02T05:23:16;4.20;99.90
40960;DHT22;27842;52.272;8.052;2023-04-02T05:28:29;4.10;99.90
40960;DHT22;27842;52.272;8.052;2023-04-02T05:31:13;4.10;99.90
40960;DHT22;27842;52.272;8.052;2023-04-02T05:33:45;4.20;99.90
40960;DHT22;27842;52.272;8.052;2023-04-02T05:36:18;4.20;99.90
40960;DHT22;27842;52.272;8.052;2023-04-02T05:38:46;4.20;99.90
40960;DHT22;27842;52.272;8.052;2023-04-02T05:43:49;4.30;99.90
40960;DHT22;27842;52.272;8.052;2023-04-02T05:46:25;4.20;99.90
40960;DHT22;27842;52.272;8.052;2023-04-02T05:49:31;4.20;99.90
40960;DHT22;27842;52.272;8.052;2023-04-02T05:52:00;4.20;99.90
40960;DHT22;27842;52.272;8.052;2023-04-02T05:54:37;4.20;99.90
40960;DHT22;27842;52.272;8.052;2023-04-02T05:57:18;4.10;99.90
40960;DHT22;27842;52.272;8.052;2023-04-02T05:59:55;4.30;99.90
40960;DHT22;27842;52.272;8.052;2023-04-02T06:02:40;4.20;99.90
40960;DHT22;27842;52.272;8.052;2023-04-02T06:05:25;4.20;99.90
40960;DHT22;27842;52.272;8.052;2023-04-02T06:08:02;4.30;99.90
40960;DHT22;27842;52.272;8.052;2023-04-02T06:10:32;4.30;99.90
40960;DHT22;27842;52.272;8.052;2023-04-02T06:13:05;4.30;99.90
40960;DHT22;27842;52.272;8.052;2023-04-02T06:15:33;4.30;99.90
40960;DHT22;27842;52.272;8.052;2023-04-02T06:18:22;4.30;99.90
40960;DHT22;27842;52.272;8.052;2023-04-02T06:20:48;4.20;99.90
40960;DHT22;27842;52.272;8.052;2023-04-02T06:25:54;4.30;99.90
40960;DHT22;27842;52.272;8.052;2023-04-02T06:28:46;4.20;99.80
40960;DHT22;27842;52.272;8.052;2023-04-02T06:31:43;4.20;99.90
40960;DHT22;27842;52.272;8.052;2023-04-02T06:34:16;4.20;99.90
40960;DHT22;27842;52.272;8.052;2023-04-02T06:36:43;4.30;99.30
40960;DHT22;27842;52.272;8.052;2023-04-02T06:39:19;4.30;99.40
40960;DHT22;27842;52.272;8.052;2023-04-02T06:44:24;4.20;99.60
40960;DHT22;27842;52.272;8.052;2023-04-02T06:46:59;4.20;99.70
40960;DHT22;27842;52.272;8.052;2023-04-02T06:49:40;4.20;99.80
40960;DHT22;27842;52.272;8.052;2023-04-02T06:52:18;4.30;99.80
40960;DHT22;27842;52.272;8.052;2023-04-02T06:54:46;4.30;99.50
40960;DHT22;27842;52.272;8.052;2023-04-02T06:57:12;4.30;99.90
40960;DHT22;27842;52.272;8.052;2023-04-02T06:59:38;4.40;99.20
40960;DHT22;27842;52.272;8.052;2023-04-02T07:02:48;4.40;99.00
40960;DHT22;27842;52.272;8.052;2023-04-02T07:05:00;4.30;99.10
40960;DHT22;27842;52.272;8.052;2023-04-02T07:07:26;4.30;99.20
40960;DHT22;27842;52.272;8.052;2023-04-02T07:09:51;4.40;98.90
40960;DHT22;27842;52.272;8.052;2023-04-02T07:12:22;4.40;98.50
40960;DHT22;27842;52.272;8.052;2023-04-02T07:14:49;4.40;98.60
40960;DHT22;27842;52.272;8.052;2023-04-02T07:17:16;4.30;98.50
40960;DHT22;27842;52.272;8.052;2023-04-02T07:19:42;4.30;98.50
40960;DHT22;27842;52.272;8.052;2023-04-02T07:22:10;4.30;98.60
40960;DHT22;27842;52.272;8.052;2023-04-02T07:24:36;4.30;98.50
40960;DHT22;27842;52.272;8.052;2023-04-02T07:27:02;4.20;98.70
40960;DHT22;27842;52.272;8.052;2023-04-02T07:29:27;4.30;98.20
40960;DHT22;27842;52.272;8.052;2023-04-02T07:31:53;4.40;97.70
40960;DHT22;27842;52.272;8.052;2023-04-02T07:34:18;4.40;97.50
40960;DHT22;27842;52.272;8.052;2023-04-02T07:36:44;4.30;97.80
40960;DHT22;27842;52.272;8.052;2023-04-02T07:39:10;4.30;97.90
40960;DHT22;27842;52.272;8.052;2023-04-02T07:41:54;4.30;97.80
40960;DHT22;27842;52.272;8.052;2023-04-02T07:44:20;4.30;97.90
40960;DHT22;27842;52.272;8.052;2023-04-02T07:46:46;4.30;98.10
40960;DHT22;27842;52.272;8.052;2023-04-02T07:49:11;4.20;98.40
40960;DHT22;27842;52.272;8.052;2023-04-02T07:51:37;4.30;98.00
40960;DHT22;27842;52.272;8.052;2023-04-02T07:54:02;4.40;97.60
40960;DHT22;27842;52.272;8.052;2023-04-02T07:56:29;4.40;97.60
40960;DHT22;27842;52.272;8.052;2023-04-02T07:58:56;4.40;97.40
40960;DHT22;27842;52.272;8.052;2023-04-02T08:01:24;4.40;97.40
40960;DHT22;27842;52.272;8.052;2023-04-02T08:03:53;4.40;97.40
40960;DHT22;27842;52.272;8.052;2023-04-02T08:06:19;4.40;97.50
40960;DHT22;27842;52.272;8.052;2023-04-02T08:08:45;4.50;97.40
40960;DHT22;27842;52.272;8.052;2023-04-02T08:11:11;4.40;97.60
40960;DHT22;27842;52.272;8.052;2023-04-02T08:13:37;4.40;97.60
40960;DHT22;27842;52.272;8.052;2023-04-02T08:16:04;4.40;97.70
40960;DHT22;27842;52.272;8.052;2023-04-02T08:18:30;4.40;97.60
40960;DHT22;27842;52.272;8.052;2023-04-02T08:20:56;4.50;97.40
40960;DHT22;27842;52.272;8.052;2023-04-02T08:23:23;4.50;97.40
40960;DHT22;27842;52.272;8.052;2023-04-02T08:25:49;4.50;96.90
40960;DHT22;27842;52.272;8.052;2023-04-02T08:28:15;4.60;96.90
40960;DHT22;27842;52.272;8.052;2023-04-02T08:30:41;4.50;96.90
40960;DHT22;27842;52.272;8.052;2023-04-02T08:33:07;4.50;97.20
40960;DHT22;27842;52.272;8.052;2023-04-02T08:35:33;4.50;97.30
40960;DHT22;27842;52.272;8.052;2023-04-02T08:37:58;4.50;97.30
40960;DHT22;27842;52.272;8.052;2023-04-02T08:40:35;4.50;97.00
40960;DHT22;27842;52.272;8.052;2023-04-02T08:43:24;4.60;96.30
40960;DHT22;27842;52.272;8.052;2023-04-02T08:48:39;4.60;96.30
40960;DHT22;27842;52.272;8.052;2023-04-02T08:51:24;4.70;95.80
40960;DHT22;27842;52.272;8.052;2023-04-02T08:53:53;4.60;95.90
40960;DHT22;27842;52.272;8.052;2023-04-02T08:56:29;4.70;96.40
40960;DHT22;27842;52.272;8.052;2023-04-02T08:58:59;4.80;95.80
40960;DHT22;27842;52.272;8.052;2023-04-02T09:02:03;4.80;95.30
40960;DHT22;27842;52.272;8.052;2023-04-02T09:04:30;4.80;95.60
40960;DHT22;27842;52.272;8.052;2023-04-02T09:06:58;4.90;95.00
40960;DHT22;27842;52.272;8.052;2023-04-02T09:09:25;5.00;95.00
40960;DHT22;27842;52.272;8.052;2023-04-02T09:11:54;5.10;94.60
40960;DHT22;27842;52.272;8.052;2023-04-02T09:14:27;5.00;94.80
40960;DHT22;27842;52.272;8.052;2023-04-02T09:17:01;4.90;95.10
40960;DHT22;27842;52.272;8.052;2023-04-02T09:22:33;5.10;94.90
40960;DHT22;27842;52.272;8.052;2023-04-02T09:25:04;5.10;94.80
40960;DHT22;27842;52.272;8.052;2023-04-02T09:27:35;5.10;94.60
40960;DHT22;27842;52.272;8.052;2023-04-02T09:30:26;5.20;94.50
40960;DHT22;27842;52.272;8.052;2023-04-02T09:33:04;5.10;94.70
40960;DHT22;27842;52.272;8.052;2023-04-02T09:35:53;5.20;94.40
40960;DHT22;27842;52.272;8.052;2023-04-02T09:40:59;5.20;94.60
40960;DHT22;27842;52.272;8.052;2023-04-02T09:43:30;5.20;94.30
40960;DHT22;27842;52.272;8.052;2023-04-02T09:46:00;5.30;94.30
40960;DHT22;27842;52.272;8.052;2023-04-02T09:51:09;5.30;94.10
40960;DHT22;27842;52.272;8.052;2023-04-02T09:53:40;5.30;94.20
40960;DHT22;27842;52.272;8.052;2023-04-02T09:58:38;5.40;94.50
40960;DHT22;27842;52.272;8.052;2023-04-02T10:01:04;5.50;94.40
40960;DHT22;27842;52.272;8.052;2023-04-02T10:03:33;5.60;94.60
40960;DHT22;27842;52.272;8.052;2023-04-02T10:06:05;5.60;94.50
40960;DHT22;27842;52.272;8.052;2023-04-02T10:08:31;5.70;94.00
40960;DHT22;27842;52.272;8.052;2023-04-02T10:11:00;5.70;94.10
40960;DHT22;27842;52.272;8.052;2023-04-02T10:13:35;5.80;93.80
40960;DHT22;27842;52.272;8.052;2023-04-02T10:16:29;5.70;93.90
40960;DHT22;27842;52.272;8.052;2023-04-02T10:19:25;5.80;93.70
40960;DHT22;27842;52.272;8.052;2023-04-02T10:21:53;5.80;94.00
40960;DHT22;27842;52.272;8.052;2023-04-02T10:24:19;5.80;94.00
40960;DHT22;27842;52.272;8.052;2023-04-02T10:27:19;5.90;94.00
40960;DHT22;27842;52.272;8.052;2023-04-02T10:29:49;5.90;93.70
40960;DHT22;27842;52.272;8.052;2023-04-02T10:35:56;5.90;94.00
40960;DHT22;27842;52.272;8.052;2023-04-02T10:38:43;6.00;93.40
40960;DHT22;27842;52.272;8.052;2023-04-02T10:41:29;6.10;93.90
40960;DHT22;27842;52.272;8.052;2023-04-02T10:47:03;6.10;93.90
40960;DHT22;27842;52.272;8.052;2023-04-02T10:52:14;6.20;93.00
40960;DHT22;27842;52.272;8.052;2023-04-02T10:54:48;6.10;93.10
40960;DHT22;27842;52.272;8.052;2023-04-02T11:08:03;6.20;92.90
40960;DHT22;27842;52.272;8.052;2023-04-02T11:10:34;6.20;92.60
40960;DHT22;27842;52.272;8.052;2023-04-02T11:13:23;6.40;92.80
40960;DHT22;27842;52.272;8.052;2023-04-02T11:15:50;6.50;92.60
40960;DHT22;27842;52.272;8.052;2023-04-02T11:18:34;6.70;92.50
40960;DHT22;27842;52.272;8.052;2023-04-02T11:23:59;6.90;92.30
40960;DHT22;27842;52.272;8.052;2023-04-02T11:26:45;7.00;91.80
40960;DHT22;27842;52.272;8.052;2023-04-02T11:29:18;7.20;91.90
40960;DHT22;27842;52.272;8.052;2023-04-02T11:31:46;7.40;91.70
40960;DHT22;27842;52.272;8.052;2023-04-02T11:42:37;7.70;91.00
40960;DHT22;27842;52.272;8.052;2023-04-02T11:50:39;8.10;90.60
40960;DHT22;27842;52.272;8.052;2023-04-02T12:07:18;8.00;90.50
40960;DHT22;27842;52.272;8.052;2023-04-02T12:09:54;8.10;90.90
40960;DHT22;27842;52.272;8.052;2023-04-02T12:12:28;8.30;90.60
40960;DHT22;27842;52.272;8.052;2023-04-02T12:14:56;8.40;90.40
40960;DHT22;27842;52.272;8.052;2023-04-02T12:17:32;8.60;90.40
40960;DHT22;27842;52.272;8.052;2023-04-02T12:22:48;8.80;89.70
40960;DHT22;27842;52.272;8.052;2023-04-02T12:25:33;8.90;89.50
40960;DHT22;27842;52.272;8.052;2023-04-02T12:30:40;8.90;87.30
40960;DHT22;27842;52.272;8.052;2023-04-02T12:35:49;9.00;87.50
40960;DHT22;27842;52.272;8.052;2023-04-02T12:38:29;9.20;85.70
40960;DHT22;27842;52.272;8.052;2023-04-02T12:40:57;9.20;85.00
40960;DHT22;27842;52.272;8.052;2023-04-02T12:43:25;9.20;85.20
40960;DHT22;27842;52.272;8.052;2023-04-02T12:45:53;9.30;85.20
40960;DHT22;27842;52.272;8.052;2023-04-02T12:48:20;9.40;85.50
40960;DHT22;27842;52.272;8.052;2023-04-02T12:50:46;9.50;86.10
40960;DHT22;27842;52.272;8.052;2023-04-02T12:53:33;9.70;85.30
40960;DHT22;27842;52.272;8.052;2023-04-02T12:56:00;10.00;83.50
40960;DHT22;27842;52.272;8.052;2023-04-02T12:58:36;10.00;83.30
40960;DHT22;27842;52.272;8.052;2023-04-02T13:01:18;10.10;82.90
40960;DHT22;27842;52.272;8.052;2023-04-02T13:06:28;10.30;83.60
40960;DHT22;27842;52.272;8.052;2023-04-02T13:08:56;10.40;82.90
40960;DHT22;27842;52.272;8.052;2023-04-02T13:11:29;10.60;82.10
40960;DHT22;27842;52.272;8.052;2023-04-02T13:14:00;10.80;81.10
40960;DHT22;27842;52.272;8.052;2023-04-02T13:16:35;10.80;81.00
40960;DHT22;27842;52.272;8.052;2023-04-02T13:19:24;10.80;81.70
40960;DHT22;27842;52.272;8.052;2023-04-02T13:21:50;10.80;80.70
40960;DHT22;27842;52.272;8.052;2023-04-02T13:24:29;11.00;81.90
40960;DHT22;27842;52.272;8.052;2023-04-02T13:26:57;11.10;81.20
40960;DHT22;27842;52.272;8.052;2023-04-02T13:29:29;11.10;81.70
40960;DHT22;27842;52.272;8.052;2023-04-02T13:31:58;11.20;82.20
40960;DHT22;27842;52.272;8.052;2023-04-02T13:34:24;11.30;82.00
40960;DHT22;27842;52.272;8.052;2023-04-02T13:36:50;11.40;78.20
40960;DHT22;27842;52.272;8.052;2023-04-02T13:39:16;11.40;80.00
40960;DHT22;27842;52.272;8.052;2023-04-02T13:41:51;11.60;78.10
40960;DHT22;27842;52.272;8.052;2023-04-02T13:44:20;11.50;78.90
40960;DHT22;27842;52.272;8.052;2023-04-02T13:46:46;11.50;79.00
40960;DHT22;27842;52.272;8.052;2023-04-02T13:49:15;11.50;78.50
40960;DHT22;27842;52.272;8.052;2023-04-02T13:51:52;11.50;78.70
40960;DHT22;27842;52.272;8.052;2023-04-02T13:54:22;11.60;76.20
40960;DHT22;27842;52.272;8.052;2023-04-02T13:56:49;11.60;77.80
40960;DHT22;27842;52.272;8.052;2023-04-02T13:59:15;11.60;77.60
40960;DHT22;27842;52.272;8.052;2023-04-02T14:01:43;11.60;78.10
40960;DHT22;27842;52.272;8.052;2023-04-02T14:04:13;11.60;78.20
40960;DHT22;27842;52.272;8.052;2023-04-02T14:07:10;11.70;78.90
40960;DHT22;27842;52.272;8.052;2023-04-02T14:09:57;11.80;79.10
40960;DHT22;27842;52.272;8.052;2023-04-02T14:18:25;12.00;76.80
40960;DHT22;27842;52.272;8.052;2023-04-02T14:23:46;11.90;77.40
40960;DHT22;27842;52.272;8.052;2023-04-02T14:26:34;11.90;76.30
40960;DHT22;27842;52.272;8.052;2023-04-02T14:29:15;11.70;77.70
40960;DHT22;27842;52.272;8.052;2023-04-02T14:32:02;11.80;77.10
40960;DHT22;27842;52.272;8.052;2023-04-02T14:35:08;11.70;77.10
40960;DHT22;27842;52.272;8.052;2023-04-02T14:37:40;11.60;77.30
40960;DHT22;27842;52.272;8.052;2023-04-02T14:40:24;11.50;77.40
40960;DHT22;27842;52.272;8.052;2023-04-02T14:43:01;11.40;76.30
40960;DHT22;27842;52.272;8.052;2023-04-02T14:51:06;11.10;76.90
40960;DHT22;27842;52.272;8.052;2023-04-02T14:53:48;11.20;77.30
40960;DHT22;27842;52.272;8.052;2023-04-02T14:56:16;11.20;77.10
40960;DHT22;27842;52.272;8.052;2023-04-02T14:58:47;11.10;77.70
40960;DHT22;27842;52.272;8.052;2023-04-02T15:01:24;11.10;77.40
40960;DHT22;27842;52.272;8.052;2023-04-02T15:03:58;11.00;76.50
40960;DHT22;27842;52.272;8.052;2023-04-02T15:06:35;11.00;77.50
40960;DHT22;27842;52.272;8.052;2023-04-02T15:09:17;10.90;77.00
40960;DHT22;27842;52.272;8.052;2023-04-02T15:11:50;10.70;77.20
40960;DHT22;27842;52.272;8.052;2023-04-02T15:14:27;10.70;77.40
40960;DHT22;27842;52.272;8.052;2023-04-02T15:16:56;10.60;77.30
40960;DHT22;27842;52.272;8.052;2023-04-02T15:19:21;10.50;75.70
40960;DHT22;27842;52.272;8.052;2023-04-02T15:30:17;10.30;77.10
40960;DHT22;27842;52.272;8.052;2023-04-02T15:32:45;10.30;76.50
40960;DHT22;27842;52.272;8.052;2023-04-02T15:38:08;10.20;77.10
40960;DHT22;27842;52.272;8.052;2023-04-02T15:49:00;10.10;77.40
40960;DHT22;27842;52.272;8.052;2023-04-02T15:51:37;10.10;76.90
40960;DHT22;27842;52.272;8.052;2023-04-02T15:58:20;9.90;78.50
40960;DHT22;27842;52.272;8.052;2023-04-02T16:03:15;9.90;78.90
40960;DHT22;27842;52.272;8.052;2023-04-02T16:05:59;10.00;78.40
40960;DHT22;27842;52.272;8.052;2023-04-02T16:08:59;10.00;76.90
40960;DHT22;27842;52.272;8.052;2023-04-02T16:11:27;9.90;77.80
40960;DHT22;27842;52.272;8.052;2023-04-02T16:14:30;9.90;77.70
40960;DHT22;27842;52.272;8.052;2023-04-02T16:17:05;9.90;78.00
40960;DHT22;27842;52.272;8.052;2023-04-02T16:19:34;9.80;77.10
40960;DHT22;27842;52.272;8.052;2023-04-02T16:22:08;9.70;78.20
40960;DHT22;27842;52.272;8.052;2023-04-02T16:24:35;9.80;78.30
40960;DHT22;27842;52.272;8.052;2023-04-02T16:29:57;9.70;78.30
40960;DHT22;27842;52.272;8.052;2023-04-02T16:41:16;9.70;76.90
40960;DHT22;27842;52.272;8.052;2023-04-02T16:55:40;9.60;79.00
40960;DHT22;27842;52.272;8.052;2023-04-02T16:58:13;9.70;78.50
40960;DHT22;27842;52.272;8.052;2023-04-02T17:00:51;9.70;77.30
40960;DHT22;27842;52.272;8.052;2023-04-02T17:06:50;9.60;78.20
40960;DHT22;27842;52.272;8.052;2023-04-02T17:14:58;9.50;79.00
40960;DHT22;27842;52.272;8.052;2023-04-02T17:17:25;9.50;79.40
40960;DHT22;27842;52.272;8.052;2023-04-02T17:19:55;9.40;79.50
40960;DHT22;27842;52.272;8.052;2023-04-02T17:22:22;9.50;79.00
40960;DHT22;27842;52.272;8.052;2023-04-02T17:24:56;9.50;79.20
40960;DHT22;27842;52.272;8.052;2023-04-02T17:30:15;9.50;78.60
40960;DHT22;27842;52.272;8.052;2023-04-02T17:32:41;9.50;78.60
40960;DHT22;27842;52.272;8.052;2023-04-02T17:35:39;9.40;78.80
40960;DHT22;27842;52.272;8.052;2023-04-02T17:38:16;9.50;77.70
40960;DHT22;27842;52.272;8.052;2023-04-02T17:41:13;9.40;78.20
40960;DHT22;27842;52.272;8.052;2023-04-02T17:47:13;9.30;79.20
40960;DHT22;27842;52.272;8.052;2023-04-02T17:52:53;9.30;79.50
40960;DHT22;27842;52.272;8.052;2023-04-02T17:56:01;9.20;80.10
40960;DHT22;27842;52.272;8.052;2023-04-02T18:01:21;9.20;81.20
40960;DHT22;27842;52.272;8.052;2023-04-02T18:04:11;9.20;80.90
40960;DHT22;27842;52.272;8.052;2023-04-02T18:09:38;9.20;81.20
40960;DHT22;27842;52.272;8.052;2023-04-02T18:15:00;9.10;82.00
40960;DHT22;27842;52.272;8.052;2023-04-02T18:23:42;9.10;82.60
40960;DHT22;27842;52.272;8.052;2023-04-02T18:26:15;9.10;82.80
40960;DHT22;27842;52.272;8.052;2023-04-02T18:37:37;9.00;83.30
40960;DHT22;27842;52.272;8.052;2023-04-02T18:40:37;8.90;83.50
40960;DHT22;27842;52.272;8.052;2023-04-02T18:48:59;8.90;84.40
40960;DHT22;27842;52.272;8.052;2023-04-02T18:51:28;8.90;84.70
40960;DHT22;27842;52.272;8.052;2023-04-02T18:56:37;8.80;84.90
40960;DHT22;27842;52.272;8.052;2023-04-02T19:01:42;8.90;84.20
40960;DHT22;27842;52.272;8.052;2023-04-02T19:04:19;8.80;84.10
40960;DHT22;27842;52.272;8.052;2023-04-02T19:07:02;8.90;84.10
40960;DHT22;27842;52.272;8.052;2023-04-02T19:09:34;8.80;84.10
40960;DHT22;27842;52.272;8.052;2023-04-02T19:12:05;8.90;84.10
40960;DHT22;27842;52.272;8.052;2023-04-02T19:14:31;8.80;84.00
40960;DHT22;27842;52.272;8.052;2023-04-02T19:28:26;8.70;85.00
40960;DHT22;27842;52.272;8.052;2023-04-02T19:34:01;8.80;85.00
40960;DHT22;27842;52.272;8.052;2023-04-02T19:36:43;8.70;85.20
40960;DHT22;27842;52.272;8.052;2023-04-02T19:39:39;8.60;85.50
40960;DHT22;27842;52.272;8.052;2023-04-02T19:44:54;8.60;85.70
40960;DHT22;27842;52.272;8.052;2023-04-02T19:47:20;8.60;85.50
40960;DHT22;27842;52.272;8.052;2023-04-02T19:49:47;8.60;85.40
40960;DHT22;27842;52.272;8.052;2023-04-02T19:52:12;8.60;85.60
40960;DHT22;27842;52.272;8.052;2023-04-02T19:54:38;8.60;85.80
40960;DHT22;27842;52.272;8.052;2023-04-02T19:57:04;8.50;85.80
40960;DHT22;27842;52.272;8.052;2023-04-02T19:59:30;8.50;86.20
40960;DHT22;27842;52.272;8.052;2023-04-02T20:01:55;8.50;86.10
40960;DHT22;27842;52.272;8.052;2023-04-02T20:04:23;8.50;86.40
40960;DHT22;27842;52.272;8.052;2023-04-02T20:06:48;8.50;86.30
40960;DHT22;27842;52.272;8.052;2023-04-02T20:09:14;8.40;86.80
40960;DHT22;27842;52.272;8.052;2023-04-02T20:11:40;8.40;85.80
40960;DHT22;27842;52.272;8.052;2023-04-02T20:14:06;8.40;85.80
40960;DHT22;27842;52.272;8.052;2023-04-02T20:16:32;8.40;85.60
40960;DHT22;27842;52.272;8.052;2023-04-02T20:19:04;8.30;86.20
40960;DHT22;27842;52.272;8.052;2023-04-02T20:21:30;8.20;86.40
40960;DHT22;27842;52.272;8.052;2023-04-02T20:24:03;8.30;86.10
40960;DHT22;27842;52.272;8.052;2023-04-02T20:26:28;8.30;86.20
40960;DHT22;27842;52.272;8.052;2023-04-02T20:28:55;8.20;86.40
40960;DHT22;27842;52.272;8.052;2023-04-02T20:31:20;8.20;86.50
40960;DHT22;27842;52.272;8.052;2023-04-02T20:33:46;8.30;86.40
40960;DHT22;27842;52.272;8.052;2023-04-02T20:36:16;8.20;86.30
40960;DHT22;27842;52.272;8.052;2023-04-02T20:38:42;8.20;86.40
40960;DHT22;27842;52.272;8.052;2023-04-02T20:41:08;8.10;86.60
40960;DHT22;27842;52.272;8.052;2023-04-02T20:43:34;8.10;86.80
40960;DHT22;27842;52.272;8.052;2023-04-02T20:46:02;8.00;87.00
40960;DHT22;27842;52.272;8.052;2023-04-02T20:48:30;8.00;87.80
40960;DHT22;27842;52.272;8.052;2023-04-02T20:50:57;8.00;87.30
40960;DHT22;27842;52.272;8.052;2023-04-02T20:53:23;7.90;87.30
40960;DHT22;27842;52.272;8.052;2023-04-02T20:55:49;7.90;87.70
40960;DHT22;27842;52.272;8.052;2023-04-02T20:58:16;7.80;87.70
40960;DHT22;27842;52.272;8.052;2023-04-02T21:00:42;7.90;87.80
40960;DHT22;27842;52.272;8.052;2023-04-02T21:03:09;7.90;87.70
40960;DHT22;27842;52.272;8.052;2023-04-02T21:05:45;7.80;87.70
40960;DHT22;27842;52.272;8.052;2023-04-02T21:08:11;7.80;87.90
40960;DHT22;27842;52.272;8.052;2023-04-02T21:10:38;7.80;87.70
40960;DHT22;27842;52.272;8.052;2023-04-02T21:13:04;7.70;87.80
40960;DHT22;27842;52.272;8.052;2023-04-02T21:15:30;7.70;88.00